Portada
METAR-TAF:

METAR-TAF

Aeroports :

South Jersey Regional Airport

Mount Holly, Nova Jersey, Estats Units d'Amèrica

latitud: 39-56-26N, longitud: 074-50-28W, altitud: 16 m

Observació

L'informe es va fer fa 30 minuts, a les 17:54 UTC
Vent calma
Temperatura 18°C
Humitat 83%
Pressió 1024 hPa
Visibilitat: 16.1 km
Cel cobert a una alçada de 1300 ft

METAR: KVAY 251754Z AUTO 00000KT 10SM OVC013 18/15 A3023 RMK AO2 SLP237 T01830150 10189 20133 50001

Hora: 14:24 (18:24 UTC)


TAF: manca

Observacions i pronòstics meteorològics de més de 4000 aeroports (METAR i TAF).

Les estacions disponibles són els punts grocs i vermells al mapa.

Posi el ratolí al punt desitjat per veure el nom de l'estació.

Feu clic per veure les observacions i els pronòstics meteorològics.

Per canviar el mapa: feu clic els botons verds amb una creu de color negre per apropar; al botó verd amb un guió per allunyar la imatge; o en les fletxes verdes per a mapes adjacents.


METAR-TAF: